sensor_id;sensor_type;location;lat;lon;timestamp;temperature;humidity
22734;DHT22;11534;51.994;5.692;2024-03-06T00:02:23;6.60;99.90
22734;DHT22;11534;51.994;5.692;2024-03-06T00:04:48;6.60;99.90
22734;DHT22;11534;51.994;5.692;2024-03-06T00:07:14;6.60;99.90
22734;DHT22;11534;51.994;5.692;2024-03-06T00:09:40;6.60;99.90
22734;DHT22;11534;51.994;5.692;2024-03-06T00:12:05;6.50;99.90
22734;DHT22;11534;51.994;5.692;2024-03-06T00:14:31;6.50;99.90
22734;DHT22;11534;51.994;5.692;2024-03-06T00:16:57;6.50;99.90
22734;DHT22;11534;51.994;5.692;2024-03-06T00:19:23;6.50;99.90
22734;DHT22;11534;51.994;5.692;2024-03-06T00:21:49;6.50;99.90
22734;DHT22;11534;51.994;5.692;2024-03-06T00:24:15;6.40;99.90
22734;DHT22;11534;51.994;5.692;2024-03-06T00:26:44;6.40;99.90
22734;DHT22;11534;51.994;5.692;2024-03-06T00:29:11;6.40;99.90
22734;DHT22;11534;51.994;5.692;2024-03-06T00:31:37;6.40;99.90
22734;DHT22;11534;51.994;5.692;2024-03-06T00:34:02;6.40;99.90
22734;DHT22;11534;51.994;5.692;2024-03-06T00:36:28;6.30;99.90
22734;DHT22;11534;51.994;5.692;2024-03-06T00:38:54;6.30;99.90
22734;DHT22;11534;51.994;5.692;2024-03-06T00:41:19;6.30;99.90
22734;DHT22;11534;51.994;5.692;2024-03-06T00:43:45;6.30;99.90
22734;DHT22;11534;51.994;5.692;2024-03-06T00:46:11;6.30;99.90
22734;DHT22;11534;51.994;5.692;2024-03-06T00:48:36;6.30;99.90
22734;DHT22;11534;51.994;5.692;2024-03-06T00:51:05;6.30;99.90
22734;DHT22;11534;51.994;5.692;2024-03-06T00:53:32;6.30;99.90
22734;DHT22;11534;51.994;5.692;2024-03-06T00:55:57;6.30;99.90
22734;DHT22;11534;51.994;5.692;2024-03-06T00:58:23;6.20;99.90
22734;DHT22;11534;51.994;5.692;2024-03-06T01:00:48;6.30;99.90
22734;DHT22;11534;51.994;5.692;2024-03-06T01:03:14;6.20;99.90
22734;DHT22;11534;51.994;5.692;2024-03-06T01:05:40;6.20;99.90
22734;DHT22;11534;51.994;5.692;2024-03-06T01:08:05;6.20;99.90
22734;DHT22;11534;51.994;5.692;2024-03-06T01:10:31;6.20;99.90
22734;DHT22;11534;51.994;5.692;2024-03-06T01:12:57;6.20;99.90
22734;DHT22;11534;51.994;5.692;2024-03-06T01:15:22;6.20;99.90
22734;DHT22;11534;51.994;5.692;2024-03-06T01:17:48;6.20;99.90
22734;DHT22;11534;51.994;5.692;2024-03-06T01:20:14;6.20;99.90
22734;DHT22;11534;51.994;5.692;2024-03-06T01:22:40;6.20;99.90
22734;DHT22;11534;51.994;5.692;2024-03-06T01:25:06;6.10;99.90
22734;DHT22;11534;51.994;5.692;2024-03-06T01:27:32;6.10;99.90
22734;DHT22;11534;51.994;5.692;2024-03-06T01:29:58;6.10;99.90
22734;DHT22;11534;51.994;5.692;2024-03-06T01:32:23;6.10;99.90
22734;DHT22;11534;51.994;5.692;2024-03-06T01:34:49;6.10;99.90
22734;DHT22;11534;51.994;5.692;2024-03-06T01:37:15;6.10;99.90
22734;DHT22;11534;51.994;5.692;2024-03-06T01:39:41;6.10;99.90
22734;DHT22;11534;51.994;5.692;2024-03-06T01:42:06;6.10;99.90
22734;DHT22;11534;51.994;5.692;2024-03-06T01:44:32;6.10;99.90
22734;DHT22;11534;51.994;5.692;2024-03-06T01:46:58;6.00;99.90
22734;DHT22;11534;51.994;5.692;2024-03-06T01:49:25;6.00;99.90
22734;DHT22;11534;51.994;5.692;2024-03-06T01:51:53;6.00;99.90
22734;DHT22;11534;51.994;5.692;2024-03-06T01:54:20;6.00;99.90
22734;DHT22;11534;51.994;5.692;2024-03-06T01:56:47;6.00;99.90
22734;DHT22;11534;51.994;5.692;2024-03-06T01:59:17;5.90;99.90
22734;DHT22;11534;51.994;5.692;2024-03-06T02:01:43;5.90;99.90
22734;DHT22;11534;51.994;5.692;2024-03-06T02:04:09;5.90;99.90
22734;DHT22;11534;51.994;5.692;2024-03-06T02:06:38;5.80;99.90
22734;DHT22;11534;51.994;5.692;2024-03-06T02:09:04;5.80;99.90
22734;DHT22;11534;51.994;5.692;2024-03-06T02:11:31;5.80;99.90
22734;DHT22;11534;51.994;5.692;2024-03-06T02:13:57;5.80;99.90
22734;DHT22;11534;51.994;5.692;2024-03-06T02:16:23;5.80;99.90
22734;DHT22;11534;51.994;5.692;2024-03-06T02:18:55;5.80;99.90
22734;DHT22;11534;51.994;5.692;2024-03-06T02:21:23;5.80;99.90
22734;DHT22;11534;51.994;5.692;2024-03-06T02:23:49;5.80;99.90
22734;DHT22;11534;51.994;5.692;2024-03-06T02:26:16;5.70;99.90
22734;DHT22;11534;51.994;5.692;2024-03-06T02:28:49;5.70;99.90
22734;DHT22;11534;51.994;5.692;2024-03-06T02:31:19;5.70;99.90
22734;DHT22;11534;51.994;5.692;2024-03-06T02:33:46;5.70;99.90
22734;DHT22;11534;51.994;5.692;2024-03-06T02:36:15;5.60;99.90
22734;DHT22;11534;51.994;5.692;2024-03-06T02:38:42;5.70;99.90
22734;DHT22;11534;51.994;5.692;2024-03-06T02:41:08;5.60;99.90
22734;DHT22;11534;51.994;5.692;2024-03-06T02:43:36;5.60;99.90
22734;DHT22;11534;51.994;5.692;2024-03-06T02:46:03;5.60;99.90
22734;DHT22;11534;51.994;5.692;2024-03-06T02:48:30;5.60;99.90
22734;DHT22;11534;51.994;5.692;2024-03-06T02:50:56;5.50;99.90
22734;DHT22;11534;51.994;5.692;2024-03-06T02:53:22;5.60;99.90
22734;DHT22;11534;51.994;5.692;2024-03-06T02:55:48;5.50;99.90
22734;DHT22;11534;51.994;5.692;2024-03-06T02:58:14;5.50;99.90
22734;DHT22;11534;51.994;5.692;2024-03-06T03:00:42;5.50;99.90
22734;DHT22;11534;51.994;5.692;2024-03-06T03:03:08;5.60;99.90
22734;DHT22;11534;51.994;5.692;2024-03-06T03:05:33;5.50;99.90
22734;DHT22;11534;51.994;5.692;2024-03-06T03:07:59;5.50;99.90
22734;DHT22;11534;51.994;5.692;2024-03-06T03:10:25;5.50;99.90
22734;DHT22;11534;51.994;5.692;2024-03-06T03:12:51;5.50;99.90
22734;DHT22;11534;51.994;5.692;2024-03-06T03:15:17;5.50;99.90
22734;DHT22;11534;51.994;5.692;2024-03-06T03:17:43;5.50;99.90
22734;DHT22;11534;51.994;5.692;2024-03-06T03:20:08;5.50;99.90
22734;DHT22;11534;51.994;5.692;2024-03-06T03:22:40;5.50;99.90
22734;DHT22;11534;51.994;5.692;2024-03-06T03:25:10;5.50;99.90
22734;DHT22;11534;51.994;5.692;2024-03-06T03:27:37;5.50;99.90
22734;DHT22;11534;51.994;5.692;2024-03-06T03:30:04;5.40;99.90
22734;DHT22;11534;51.994;5.692;2024-03-06T03:32:30;5.40;99.90
22734;DHT22;11534;51.994;5.692;2024-03-06T03:34:56;5.40;99.90
22734;DHT22;11534;51.994;5.692;2024-03-06T03:37:21;5.40;99.90
22734;DHT22;11534;51.994;5.692;2024-03-06T03:39:47;5.40;99.90
22734;DHT22;11534;51.994;5.692;2024-03-06T03:42:13;5.40;99.90
22734;DHT22;11534;51.994;5.692;2024-03-06T03:44:38;5.30;99.90
22734;DHT22;11534;51.994;5.692;2024-03-06T03:47:05;5.40;99.90
22734;DHT22;11534;51.994;5.692;2024-03-06T03:49:31;5.40;99.90
22734;DHT22;11534;51.994;5.692;2024-03-06T03:51:56;5.40;99.90
22734;DHT22;11534;51.994;5.692;2024-03-06T03:54:22;5.40;99.90
22734;DHT22;11534;51.994;5.692;2024-03-06T03:56:47;5.30;99.90
22734;DHT22;11534;51.994;5.692;2024-03-06T03:59:14;5.30;99.90
22734;DHT22;11534;51.994;5.692;2024-03-06T04:01:39;5.30;99.90
22734;DHT22;11534;51.994;5.692;2024-03-06T04:04:05;5.30;99.90
22734;DHT22;11534;51.994;5.692;2024-03-06T04:06:32;5.30;99.90
22734;DHT22;11534;51.994;5.692;2024-03-06T04:08:58;5.30;99.90
22734;DHT22;11534;51.994;5.692;2024-03-06T04:11:23;5.30;99.90
22734;DHT22;11534;51.994;5.692;2024-03-06T04:13:49;5.30;99.90
22734;DHT22;11534;51.994;5.692;2024-03-06T04:16:17;5.20;99.90
22734;DHT22;11534;51.994;5.692;2024-03-06T04:18:44;5.10;99.90
22734;DHT22;11534;51.994;5.692;2024-03-06T04:21:10;5.20;99.90
22734;DHT22;11534;51.994;5.692;2024-03-06T04:23:36;5.00;99.90
22734;DHT22;11534;51.994;5.692;2024-03-06T04:26:03;5.10;99.90
22734;DHT22;11534;51.994;5.692;2024-03-06T04:28:29;5.10;99.90
22734;DHT22;11534;51.994;5.692;2024-03-06T04:30:55;5.10;99.90
22734;DHT22;11534;51.994;5.692;2024-03-06T04:33:21;5.20;99.90
22734;DHT22;11534;51.994;5.692;2024-03-06T04:35:47;5.10;99.90
22734;DHT22;11534;51.994;5.692;2024-03-06T04:38:13;5.10;99.90
22734;DHT22;11534;51.994;5.692;2024-03-06T04:40:39;5.00;99.90
22734;DHT22;11534;51.994;5.692;2024-03-06T04:43:05;5.10;99.90
22734;DHT22;11534;51.994;5.692;2024-03-06T04:45:32;5.00;99.90
22734;DHT22;11534;51.994;5.692;2024-03-06T04:47:57;5.00;99.90
22734;DHT22;11534;51.994;5.692;2024-03-06T04:50:23;5.00;99.90
22734;DHT22;11534;51.994;5.692;2024-03-06T04:52:49;5.10;99.90
22734;DHT22;11534;51.994;5.692;2024-03-06T04:55:15;5.00;99.90
22734;DHT22;11534;51.994;5.692;2024-03-06T04:57:45;5.00;99.90
22734;DHT22;11534;51.994;5.692;2024-03-06T05:00:12;5.00;99.90
22734;DHT22;11534;51.994;5.692;2024-03-06T05:02:38;5.00;99.90
22734;DHT22;11534;51.994;5.692;2024-03-06T05:05:04;4.90;99.90
22734;DHT22;11534;51.994;5.692;2024-03-06T05:07:31;5.00;99.90
22734;DHT22;11534;51.994;5.692;2024-03-06T05:09:57;4.90;99.90
22734;DHT22;11534;51.994;5.692;2024-03-06T05:12:24;4.90;99.90
22734;DHT22;11534;51.994;5.692;2024-03-06T05:14:51;4.90;99.90
22734;DHT22;11534;51.994;5.692;2024-03-06T05:17:17;4.90;99.90
22734;DHT22;11534;51.994;5.692;2024-03-06T05:19:43;4.90;99.90
22734;DHT22;11534;51.994;5.692;2024-03-06T05:22:10;4.90;99.90
22734;DHT22;11534;51.994;5.692;2024-03-06T05:24:37;4.90;99.90
22734;DHT22;11534;51.994;5.692;2024-03-06T05:27:02;4.90;99.90
22734;DHT22;11534;51.994;5.692;2024-03-06T05:29:28;4.90;99.90
22734;DHT22;11534;51.994;5.692;2024-03-06T05:31:53;4.80;99.90
22734;DHT22;11534;51.994;5.692;2024-03-06T05:34:21;4.80;99.90
22734;DHT22;11534;51.994;5.692;2024-03-06T05:36:48;4.90;99.90
22734;DHT22;11534;51.994;5.692;2024-03-06T05:39:13;4.80;99.90
22734;DHT22;11534;51.994;5.692;2024-03-06T05:41:40;4.90;99.90
22734;DHT22;11534;51.994;5.692;2024-03-06T05:44:06;4.80;99.90
22734;DHT22;11534;51.994;5.692;2024-03-06T05:46:32;4.80;99.90
22734;DHT22;11534;51.994;5.692;2024-03-06T05:48:58;4.80;99.90
22734;DHT22;11534;51.994;5.692;2024-03-06T05:51:23;4.80;99.90
22734;DHT22;11534;51.994;5.692;2024-03-06T05:53:49;4.80;99.90
22734;DHT22;11534;51.994;5.692;2024-03-06T05:56:14;4.80;99.90
22734;DHT22;11534;51.994;5.692;2024-03-06T05:58:40;4.80;99.90
22734;DHT22;11534;51.994;5.692;2024-03-06T06:01:06;4.80;99.90
22734;DHT22;11534;51.994;5.692;2024-03-06T06:03:32;4.80;99.90
22734;DHT22;11534;51.994;5.692;2024-03-06T06:05:58;4.80;99.90
22734;DHT22;11534;51.994;5.692;2024-03-06T06:08:26;4.80;99.90
22734;DHT22;11534;51.994;5.692;2024-03-06T06:10:52;4.80;99.90
22734;DHT22;11534;51.994;5.692;2024-03-06T06:13:18;4.80;99.90
22734;DHT22;11534;51.994;5.692;2024-03-06T06:15:45;4.80;99.90
22734;DHT22;11534;51.994;5.692;2024-03-06T06:18:10;4.80;99.90
22734;DHT22;11534;51.994;5.692;2024-03-06T06:20:36;4.80;99.90
22734;DHT22;11534;51.994;5.692;2024-03-06T06:23:02;4.80;99.90
22734;DHT22;11534;51.994;5.692;2024-03-06T06:25:27;4.80;99.90
22734;DHT22;11534;51.994;5.692;2024-03-06T06:27:53;4.80;99.90
22734;DHT22;11534;51.994;5.692;2024-03-06T06:30:19;4.80;99.90
22734;DHT22;11534;51.994;5.692;2024-03-06T06:32:44;4.80;99.90
22734;DHT22;11534;51.994;5.692;2024-03-06T06:35:11;4.80;99.90
22734;DHT22;11534;51.994;5.692;2024-03-06T06:37:38;4.80;99.90
22734;DHT22;11534;51.994;5.692;2024-03-06T06:40:06;4.80;99.90
22734;DHT22;11534;51.994;5.692;2024-03-06T06:42:33;4.80;99.90
22734;DHT22;11534;51.994;5.692;2024-03-06T06:44:59;4.80;99.90
22734;DHT22;11534;51.994;5.692;2024-03-06T06:47:26;4.80;99.90
22734;DHT22;11534;51.994;5.692;2024-03-06T06:49:52;4.90;99.90
22734;DHT22;11534;51.994;5.692;2024-03-06T06:52:18;4.90;99.90
22734;DHT22;11534;51.994;5.692;2024-03-06T06:54:44;4.90;99.90
22734;DHT22;11534;51.994;5.692;2024-03-06T06:57:09;4.90;99.90
22734;DHT22;11534;51.994;5.692;2024-03-06T06:59:35;4.90;99.90
22734;DHT22;11534;51.994;5.692;2024-03-06T07:02:02;4.90;99.90
22734;DHT22;11534;51.994;5.692;2024-03-06T07:04:28;4.90;99.90
22734;DHT22;11534;51.994;5.692;2024-03-06T07:06:55;4.90;99.90
22734;DHT22;11534;51.994;5.692;2024-03-06T07:09:21;4.90;99.90
22734;DHT22;11534;51.994;5.692;2024-03-06T07:11:46;5.00;99.90
22734;DHT22;11534;51.994;5.692;2024-03-06T07:14:13;5.00;99.90
22734;DHT22;11534;51.994;5.692;2024-03-06T07:16:45;5.00;99.90
22734;DHT22;11534;51.994;5.692;2024-03-06T07:19:11;5.10;99.90
22734;DHT22;11534;51.994;5.692;2024-03-06T07:21:37;5.20;99.90
22734;DHT22;11534;51.994;5.692;2024-03-06T07:24:03;5.20;99.90
22734;DHT22;11534;51.994;5.692;2024-03-06T07:26:32;5.20;99.90
22734;DHT22;11534;51.994;5.692;2024-03-06T07:28:57;5.20;99.90
22734;DHT22;11534;51.994;5.692;2024-03-06T07:31:24;5.20;99.90
22734;DHT22;11534;51.994;5.692;2024-03-06T07:33:50;5.30;99.90
22734;DHT22;11534;51.994;5.692;2024-03-06T07:36:15;5.30;99.90
22734;DHT22;11534;51.994;5.692;2024-03-06T07:38:42;5.30;99.90
22734;DHT22;11534;51.994;5.692;2024-03-06T07:41:08;5.40;99.90
22734;DHT22;11534;51.994;5.692;2024-03-06T07:43:34;5.40;99.90
22734;DHT22;11534;51.994;5.692;2024-03-06T07:45:59;5.40;99.90
22734;DHT22;11534;51.994;5.692;2024-03-06T07:48:26;5.40;99.90
22734;DHT22;11534;51.994;5.692;2024-03-06T07:50:51;5.40;99.90
22734;DHT22;11534;51.994;5.692;2024-03-06T07:53:17;5.40;99.90
22734;DHT22;11534;51.994;5.692;2024-03-06T07:55:43;5.30;99.90
22734;DHT22;11534;51.994;5.692;2024-03-06T07:58:09;5.40;99.90
22734;DHT22;11534;51.994;5.692;2024-03-06T08:00:35;5.30;99.90
22734;DHT22;11534;51.994;5.692;2024-03-06T08:03:01;5.40;99.90
22734;DHT22;11534;51.994;5.692;2024-03-06T08:05:28;5.40;99.90
22734;DHT22;11534;51.994;5.692;2024-03-06T08:07:53;5.40;99.90
22734;DHT22;11534;51.994;5.692;2024-03-06T08:10:19;5.40;99.90
22734;DHT22;11534;51.994;5.692;2024-03-06T08:12:45;5.50;99.90
22734;DHT22;11534;51.994;5.692;2024-03-06T08:15:14;5.50;99.90
22734;DHT22;11534;51.994;5.692;2024-03-06T08:17:41;5.40;99.90
22734;DHT22;11534;51.994;5.692;2024-03-06T08:20:10;5.40;99.90
22734;DHT22;11534;51.994;5.692;2024-03-06T08:22:38;5.50;99.90
22734;DHT22;11534;51.994;5.692;2024-03-06T08:25:13;5.50;99.90
22734;DHT22;11534;51.994;5.692;2024-03-06T08:27:40;5.60;99.90
22734;DHT22;11534;51.994;5.692;2024-03-06T08:30:07;5.60;99.90
22734;DHT22;11534;51.994;5.692;2024-03-06T08:32:34;5.60;99.90
22734;DHT22;11534;51.994;5.692;2024-03-06T08:35:09;5.60;99.90
22734;DHT22;11534;51.994;5.692;2024-03-06T08:37:41;5.70;99.90
22734;DHT22;11534;51.994;5.692;2024-03-06T08:40:08;5.70;99.90
22734;DHT22;11534;51.994;5.692;2024-03-06T08:42:40;5.70;99.90
22734;DHT22;11534;51.994;5.692;2024-03-06T08:45:06;5.80;99.90
22734;DHT22;11534;51.994;5.692;2024-03-06T08:47:33;5.80;99.90
22734;DHT22;11534;51.994;5.692;2024-03-06T08:50:00;5.90;99.90
22734;DHT22;11534;51.994;5.692;2024-03-06T08:52:29;5.90;99.90
22734;DHT22;11534;51.994;5.692;2024-03-06T08:54:58;5.90;99.90
22734;DHT22;11534;51.994;5.692;2024-03-06T08:57:24;5.90;99.90
22734;DHT22;11534;51.994;5.692;2024-03-06T08:59:51;6.00;99.90
22734;DHT22;11534;51.994;5.692;2024-03-06T09:02:18;6.00;99.90
22734;DHT22;11534;51.994;5.692;2024-03-06T09:04:45;6.00;99.90
22734;DHT22;11534;51.994;5.692;2024-03-06T09:07:11;6.00;99.90
22734;DHT22;11534;51.994;5.692;2024-03-06T09:09:38;6.00;99.90
22734;DHT22;11534;51.994;5.692;2024-03-06T09:12:05;6.10;99.90
22734;DHT22;11534;51.994;5.692;2024-03-06T09:14:32;6.10;99.90
22734;DHT22;11534;51.994;5.692;2024-03-06T09:16:58;6.20;99.90
22734;DHT22;11534;51.994;5.692;2024-03-06T09:19:24;6.20;99.90
22734;DHT22;11534;51.994;5.692;2024-03-06T09:21:49;6.20;99.90
22734;DHT22;11534;51.994;5.692;2024-03-06T09:24:15;6.20;99.90
22734;DHT22;11534;51.994;5.692;2024-03-06T09:26:41;6.20;99.90
22734;DHT22;11534;51.994;5.692;2024-03-06T09:29:06;6.30;99.90
22734;DHT22;11534;51.994;5.692;2024-03-06T09:31:32;6.30;99.90
22734;DHT22;11534;51.994;5.692;2024-03-06T09:33:57;6.40;99.90
22734;DHT22;11534;51.994;5.692;2024-03-06T09:36:24;6.40;99.90
22734;DHT22;11534;51.994;5.692;2024-03-06T09:38:51;6.50;99.90
22734;DHT22;11534;51.994;5.692;2024-03-06T09:41:18;6.50;99.90
22734;DHT22;11534;51.994;5.692;2024-03-06T09:43:44;6.60;99.90
22734;DHT22;11534;51.994;5.692;2024-03-06T09:46:10;6.60;99.90
22734;DHT22;11534;51.994;5.692;2024-03-06T09:48:36;6.60;99.90
22734;DHT22;11534;51.994;5.692;2024-03-06T09:51:07;6.70;99.90
22734;DHT22;11534;51.994;5.692;2024-03-06T09:53:32;6.70;99.90
22734;DHT22;11534;51.994;5.692;2024-03-06T09:55:59;6.80;99.90
22734;DHT22;11534;51.994;5.692;2024-03-06T09:58:25;6.80;99.90
22734;DHT22;11534;51.994;5.692;2024-03-06T10:00:52;6.80;99.90
22734;DHT22;11534;51.994;5.692;2024-03-06T10:03:18;6.90;99.90
22734;DHT22;11534;51.994;5.692;2024-03-06T10:05:45;7.00;99.90
22734;DHT22;11534;51.994;5.692;2024-03-06T10:08:11;7.10;99.90
22734;DHT22;11534;51.994;5.692;2024-03-06T10:10:37;7.20;99.90
22734;DHT22;11534;51.994;5.692;2024-03-06T10:13:03;7.20;99.90
22734;DHT22;11534;51.994;5.692;2024-03-06T10:15:28;7.20;99.90
22734;DHT22;11534;51.994;5.692;2024-03-06T10:18:30;7.20;99.90
22734;DHT22;11534;51.994;5.692;2024-03-06T10:20:56;7.20;99.90
22734;DHT22;11534;51.994;5.692;2024-03-06T10:23:22;7.10;99.90
22734;DHT22;11534;51.994;5.692;2024-03-06T10:25:49;7.20;99.90
22734;DHT22;11534;51.994;5.692;2024-03-06T10:28:19;7.30;99.90
22734;DHT22;11534;51.994;5.692;2024-03-06T10:30:46;7.40;99.90
22734;DHT22;11534;51.994;5.692;2024-03-06T10:33:12;7.40;99.90
22734;DHT22;11534;51.994;5.692;2024-03-06T10:35:43;7.40;99.90
22734;DHT22;11534;51.994;5.692;2024-03-06T10:38:10;7.40;99.90
22734;DHT22;11534;51.994;5.692;2024-03-06T10:40:42;7.40;99.90
22734;DHT22;11534;51.994;5.692;2024-03-06T10:43:10;7.40;99.90
22734;DHT22;11534;51.994;5.692;2024-03-06T10:45:50;7.40;99.90
22734;DHT22;11534;51.994;5.692;2024-03-06T10:48:17;7.40;99.90
22734;DHT22;11534;51.994;5.692;2024-03-06T10:50:44;7.40;99.90
22734;DHT22;11534;51.994;5.692;2024-03-06T10:53:11;7.40;99.90
22734;DHT22;11534;51.994;5.692;2024-03-06T10:55:38;7.40;99.90
22734;DHT22;11534;51.994;5.692;2024-03-06T10:58:08;7.40;99.90
22734;DHT22;11534;51.994;5.692;2024-03-06T11:00:40;7.30;99.90
22734;DHT22;11534;51.994;5.692;2024-03-06T11:03:07;7.40;99.90
22734;DHT22;11534;51.994;5.692;2024-03-06T11:05:40;7.60;99.90
22734;DHT22;11534;51.994;5.692;2024-03-06T11:08:11;7.70;99.90
22734;DHT22;11534;51.994;5.692;2024-03-06T11:10:39;7.80;99.90
22734;DHT22;11534;51.994;5.692;2024-03-06T11:13:21;7.90;99.90
22734;DHT22;11534;51.994;5.692;2024-03-06T11:15:48;8.00;99.90
22734;DHT22;11534;51.994;5.692;2024-03-06T11:23:34;8.20;99.90
22734;DHT22;11534;51.994;5.692;2024-03-06T11:26:06;8.20;99.90
22734;DHT22;11534;51.994;5.692;2024-03-06T11:28:37;8.30;99.90
22734;DHT22;11534;51.994;5.692;2024-03-06T11:31:07;8.40;99.90
22734;DHT22;11534;51.994;5.692;2024-03-06T11:36:28;8.10;99.90
22734;DHT22;11534;51.994;5.692;2024-03-06T11:38:59;8.10;99.90
22734;DHT22;11534;51.994;5.692;2024-03-06T11:41:26;8.10;99.90
22734;DHT22;11534;51.994;5.692;2024-03-06T11:43:53;8.20;99.90
22734;DHT22;11534;51.994;5.692;2024-03-06T11:46:21;8.20;99.90
22734;DHT22;11534;51.994;5.692;2024-03-06T11:48:56;8.20;99.90
22734;DHT22;11534;51.994;5.692;2024-03-06T11:51:23;8.40;99.90
22734;DHT22;11534;51.994;5.692;2024-03-06T11:53:50;8.70;99.90
22734;DHT22;11534;51.994;5.692;2024-03-06T11:56:18;9.00;99.90
22734;DHT22;11534;51.994;5.692;2024-03-06T11:58:45;9.40;99.90
22734;DHT22;11534;51.994;5.692;2024-03-06T12:01:11;9.80;99.90
22734;DHT22;11534;51.994;5.692;2024-03-06T12:03:37;10.20;99.90
22734;DHT22;11534;51.994;5.692;2024-03-06T12:06:03;10.20;99.90
22734;DHT22;11534;51.994;5.692;2024-03-06T12:08:28;10.60;99.90
22734;DHT22;11534;51.994;5.692;2024-03-06T12:10:55;10.90;99.90
22734;DHT22;11534;51.994;5.692;2024-03-06T12:13:24;11.30;99.90
22734;DHT22;11534;51.994;5.692;2024-03-06T12:15:50;11.60;99.90
22734;DHT22;11534;51.994;5.692;2024-03-06T12:18:17;11.40;99.90
22734;DHT22;11534;51.994;5.692;2024-03-06T12:20:44;11.40;99.90
22734;DHT22;11534;51.994;5.692;2024-03-06T12:23:31;11.20;99.90
22734;DHT22;11534;51.994;5.692;2024-03-06T12:26:06;11.30;99.90
22734;DHT22;11534;51.994;5.692;2024-03-06T12:28:32;11.50;99.90
22734;DHT22;11534;51.994;5.692;2024-03-06T12:30:58;11.50;99.90
22734;DHT22;11534;51.994;5.692;2024-03-06T12:33:27;11.80;99.90
22734;DHT22;11534;51.994;5.692;2024-03-06T12:36:24;12.00;99.90
22734;DHT22;11534;51.994;5.692;2024-03-06T12:38:55;12.20;99.90
22734;DHT22;11534;51.994;5.692;2024-03-06T12:41:20;12.30;99.90
22734;DHT22;11534;51.994;5.692;2024-03-06T12:43:46;12.50;99.90
22734;DHT22;11534;51.994;5.692;2024-03-06T12:46:12;12.60;99.90
22734;DHT22;11534;51.994;5.692;2024-03-06T12:48:37;12.80;99.90
22734;DHT22;11534;51.994;5.692;2024-03-06T12:51:03;12.80;99.90
22734;DHT22;11534;51.994;5.692;2024-03-06T12:53:32;13.00;99.90
22734;DHT22;11534;51.994;5.692;2024-03-06T12:56:01;13.30;99.90
22734;DHT22;11534;51.994;5.692;2024-03-06T12:58:28;13.30;99.90
22734;DHT22;11534;51.994;5.692;2024-03-06T13:00:56;13.10;99.90
22734;DHT22;11534;51.994;5.692;2024-03-06T13:03:23;13.10;99.90
22734;DHT22;11534;51.994;5.692;2024-03-06T13:05:48;12.80;99.90
22734;DHT22;11534;51.994;5.692;2024-03-06T13:08:14;12.80;99.90
22734;DHT22;11534;51.994;5.692;2024-03-06T13:10:41;12.70;99.90
22734;DHT22;11534;51.994;5.692;2024-03-06T13:13:06;12.60;99.90
22734;DHT22;11534;51.994;5.692;2024-03-06T13:15:33;13.10;99.90
22734;DHT22;11534;51.994;5.692;2024-03-06T13:18:02;13.00;99.90
22734;DHT22;11534;51.994;5.692;2024-03-06T13:20:32;13.20;99.90
22734;DHT22;11534;51.994;5.692;2024-03-06T13:22:58;13.30;99.90
22734;DHT22;11534;51.994;5.692;2024-03-06T13:25:23;12.90;99.90
22734;DHT22;11534;51.994;5.692;2024-03-06T13:27:50;12.80;99.90
22734;DHT22;11534;51.994;5.692;2024-03-06T13:30:18;12.70;99.90
22734;DHT22;11534;51.994;5.692;2024-03-06T13:32:44;12.80;99.90
22734;DHT22;11534;51.994;5.692;2024-03-06T13:35:13;13.00;99.90
22734;DHT22;11534;51.994;5.692;2024-03-06T13:37:43;13.10;99.90
22734;DHT22;11534;51.994;5.692;2024-03-06T13:40:10;13.30;99.90
22734;DHT22;11534;51.994;5.692;2024-03-06T13:42:42;13.30;99.90
22734;DHT22;11534;51.994;5.692;2024-03-06T13:45:08;13.30;99.90
22734;DHT22;11534;51.994;5.692;2024-03-06T13:47:38;13.50;99.90
22734;DHT22;11534;51.994;5.692;2024-03-06T13:50:11;13.60;99.90
22734;DHT22;11534;51.994;5.692;2024-03-06T13:52:37;13.40;99.90
22734;DHT22;11534;51.994;5.692;2024-03-06T13:55:03;13.50;99.90
22734;DHT22;11534;51.994;5.692;2024-03-06T13:57:36;13.50;99.90
22734;DHT22;11534;51.994;5.692;2024-03-06T14:00:06;13.40;99.90
22734;DHT22;11534;51.994;5.692;2024-03-06T14:02:38;13.40;99.90
22734;DHT22;11534;51.994;5.692;2024-03-06T14:05:05;13.50;99.90
22734;DHT22;11534;51.994;5.692;2024-03-06T14:07:31;13.70;99.90
22734;DHT22;11534;51.994;5.692;2024-03-06T14:09:57;13.70;99.90
22734;DHT22;11534;51.994;5.692;2024-03-06T14:12:23;13.70;99.90
22734;DHT22;11534;51.994;5.692;2024-03-06T14:14:49;13.30;99.90
22734;DHT22;11534;51.994;5.692;2024-03-06T14:17:15;13.30;99.90
22734;DHT22;11534;51.994;5.692;2024-03-06T14:19:40;13.20;99.90
22734;DHT22;11534;51.994;5.692;2024-03-06T14:22:10;13.20;99.90
22734;DHT22;11534;51.994;5.692;2024-03-06T14:24:36;13.20;99.90
22734;DHT22;11534;51.994;5.692;2024-03-06T14:27:02;13.10;99.90
22734;DHT22;11534;51.994;5.692;2024-03-06T14:29:31;13.10;99.90
22734;DHT22;11534;51.994;5.692;2024-03-06T14:31:57;13.20;99.90
22734;DHT22;11534;51.994;5.692;2024-03-06T14:34:23;13.40;99.90
22734;DHT22;11534;51.994;5.692;2024-03-06T14:36:52;13.60;99.90
22734;DHT22;11534;51.994;5.692;2024-03-06T14:39:19;13.40;99.90
22734;DHT22;11534;51.994;5.692;2024-03-06T14:41:47;13.10;99.90
22734;DHT22;11534;51.994;5.692;2024-03-06T14:44:13;13.00;99.90
22734;DHT22;11534;51.994;5.692;2024-03-06T14:46:40;13.10;99.90
22734;DHT22;11534;51.994;5.692;2024-03-06T14:49:06;13.10;99.90
22734;DHT22;11534;51.994;5.692;2024-03-06T14:51:32;13.00;99.90
22734;DHT22;11534;51.994;5.692;2024-03-06T14:53:59;13.10;99.90
22734;DHT22;11534;51.994;5.692;2024-03-06T14:56:24;13.10;99.90
22734;DHT22;11534;51.994;5.692;2024-03-06T14:58:50;12.90;99.90
22734;DHT22;11534;51.994;5.692;2024-03-06T15:01:17;12.80;99.90
22734;DHT22;11534;51.994;5.692;2024-03-06T15:03:43;12.80;99.90
22734;DHT22;11534;51.994;5.692;2024-03-06T15:06:11;12.80;99.90
22734;DHT22;11534;51.994;5.692;2024-03-06T15:08:36;12.70;99.90
22734;DHT22;11534;51.994;5.692;2024-03-06T15:11:02;12.60;99.90
22734;DHT22;11534;51.994;5.692;2024-03-06T15:13:28;12.50;99.90
22734;DHT22;11534;51.994;5.692;2024-03-06T15:15:54;12.40;99.90
22734;DHT22;11534;51.994;5.692;2024-03-06T15:18:19;12.40;99.90
22734;DHT22;11534;51.994;5.692;2024-03-06T15:20:45;12.30;99.90
22734;DHT22;11534;51.994;5.692;2024-03-06T15:23:11;12.40;99.90
22734;DHT22;11534;51.994;5.692;2024-03-06T15:25:37;12.30;99.90
22734;DHT22;11534;51.994;5.692;2024-03-06T15:28:03;12.30;99.90
22734;DHT22;11534;51.994;5.692;2024-03-06T15:30:29;12.30;99.90
22734;DHT22;11534;51.994;5.692;2024-03-06T15:32:57;12.20;99.90
22734;DHT22;11534;51.994;5.692;2024-03-06T15:35:23;12.20;99.90
22734;DHT22;11534;51.994;5.692;2024-03-06T15:37:49;12.10;99.90
22734;DHT22;11534;51.994;5.692;2024-03-06T15:40:15;12.00;99.90
22734;DHT22;11534;51.994;5.692;2024-03-06T15:42:41;11.90;99.90
22734;DHT22;11534;51.994;5.692;2024-03-06T15:45:11;11.90;99.90
22734;DHT22;11534;51.994;5.692;2024-03-06T15:47:36;11.80;99.90
22734;DHT22;11534;51.994;5.692;2024-03-06T15:50:04;11.70;99.90